Time;durP1;ratioP1;P1;durP2;ratioP2;P2;SDS_P1;SDS_P2;PMS_P1;PMS_P2;Temp;Humidity;BMP_temperature;BMP_pressure;BME280_temperature;BME280_humidity;BME280_pressure;Samples;Min_cycle;Max_cycle;Signal;HPM_P1;HPM_P2
2024/03/20 00:01:41;;;;;;;14.13;7.57;;;;;;;13.99;75.52;101202.22;5065058;28;20064;-57
2024/03/20 00:04:07;;;;;;;16.40;7.50;;;;;;;13.88;76.07;101205.63;5064604;28;20056;-59
2024/03/20 00:06:34;;;;;;;19.17;7.82;;;;;;;13.68;76.98;101215.38;5072358;28;20052;-59
2024/03/20 00:09:03;;;;;;;13.23;7.03;;;;;;;13.63;77.57;101211.94;5055968;28;20051;-56
2024/03/20 00:11:30;;;;;;;15.10;7.32;;;;;;;13.86;77.29;101214.25;5054372;28;20052;-57
2024/03/20 00:13:57;;;;;;;17.92;7.25;;;;;;;13.99;76.54;101221.59;5056190;28;20099;-60
2024/03/20 00:16:23;;;;;;;14.93;7.05;;;;;;;13.58;78.20;101213.69;5039832;28;20051;-55
2024/03/20 00:18:50;;;;;;;14.77;6.93;;;;;;;13.65;78.35;101215.97;5055946;28;20056;-55
2024/03/20 00:21:16;;;;;;;17.02;6.90;;;;;;;13.68;78.26;101209.00;5053030;28;20048;-58
2024/03/20 00:23:43;;;;;;;12.45;6.80;;;;;;;13.73;78.16;101204.13;5071138;28;20063;-56
2024/03/20 00:26:10;;;;;;;18.92;7.30;;;;;;;14.04;76.87;101195.69;5063666;28;20056;-58
2024/03/20 00:28:36;;;;;;;14.40;6.25;;;;;;;13.84;77.46;101193.56;5043878;28;20056;-57
2024/03/20 00:31:02;;;;;;;16.15;6.38;;;;;;;13.88;77.37;101186.25;5060150;28;20060;-58
2024/03/20 00:33:29;;;;;;;13.55;5.55;;;;;;;13.93;77.04;101184.13;5054098;28;20056;-57
2024/03/20 00:35:55;;;;;;;13.23;6.03;;;;;;;13.72;77.65;101180.34;5034739;28;20056;-56
2024/03/20 00:38:24;;;;;;;19.13;6.20;;;;;;;13.88;77.39;101178.75;5050416;28;20048;-61
2024/03/20 00:40:51;;;;;;;16.67;6.23;;;;;;;13.42;78.67;101190.34;5066614;28;20041;-61
2024/03/20 00:43:18;;;;;;;12.98;6.05;;;;;;;13.24;80.28;101201.69;5050177;28;20797;-64
2024/03/20 00:45:44;;;;;;;15.70;6.45;;;;;;;13.19;81.54;101196.31;5042815;28;20060;-57
2024/03/20 00:48:11;;;;;;;13.02;5.80;;;;;;;13.24;80.87;101194.22;5036500;28;20054;-57
2024/03/20 00:50:38;;;;;;;14.95;6.03;;;;;;;13.21;81.13;101192.09;5054621;28;20795;-59
2024/03/20 00:53:04;;;;;;;11.05;5.32;;;;;;;13.38;80.24;101197.69;5069978;28;20056;-59
2024/03/20 00:55:31;;;;;;;11.60;6.15;;;;;;;13.46;79.80;101190.53;5063220;28;20052;-57
2024/03/20 00:57:57;;;;;;;14.25;6.55;;;;;;;13.55;79.75;101185.84;5051727;28;20053;-56
2024/03/20 01:00:23;;;;;;;15.57;6.45;;;;;;;13.53;79.34;101199.19;5058918;28;20048;-59
2024/03/20 01:02:53;;;;;;;15.52;6.72;;;;;;;13.50;79.74;101197.88;5056933;28;20060;-59
2024/03/20 01:05:20;;;;;;;15.07;6.13;;;;;;;13.62;79.86;101193.66;5065511;28;20052;-59
2024/03/20 01:07:46;;;;;;;16.30;6.57;;;;;;;13.40;79.94;101187.13;5049016;28;20064;-58
2024/03/20 01:10:12;;;;;;;12.15;6.38;;;;;;;13.41;80.51;101191.50;5068454;28;20456;-59
2024/03/20 01:12:38;;;;;;;12.90;6.20;;;;;;;13.34;80.72;101191.16;5067827;28;20055;-58
2024/03/20 01:15:05;;;;;;;11.63;6.20;;;;;;;13.40;80.35;101183.53;5064513;28;20045;-55
2024/03/20 01:17:34;;;;;;;14.45;6.40;;;;;;;13.47;79.96;101184.72;5067984;28;20056;-57
2024/03/20 01:20:02;;;;;;;13.80;5.60;;;;;;;13.35;80.47;101187.25;5067711;28;20053;-58
2024/03/20 01:22:37;;;;;;;14.68;6.18;;;;;;;13.18;81.33;101192.72;5059359;28;20049;-59
2024/03/20 01:25:04;;;;;;;14.05;6.00;;;;;;;13.18;81.35;101192.72;5049187;28;20056;-59
2024/03/20 01:27:31;;;;;;;11.18;5.70;;;;;;;13.26;81.44;101199.44;5055616;28;20150;-58
2024/03/20 01:29:57;;;;;;;15.85;6.38;;;;;;;13.17;81.42;101188.34;5060555;28;20049;-59
2024/03/20 01:32:23;;;;;;;13.63;5.78;;;;;;;13.20;81.44;101187.69;5050602;28;20060;-58
2024/03/20 01:34:50;;;;;;;14.90;5.43;;;;;;;13.23;81.26;101189.81;5084684;28;20044;-56
2024/03/20 01:37:16;;;;;;;15.57;5.78;;;;;;;13.29;81.28;101188.53;5053982;28;20057;-58
2024/03/20 01:39:42;;;;;;;12.98;6.30;;;;;;;13.35;80.81;101180.91;5047320;28;20057;-59
2024/03/20 01:42:09;;;;;;;11.13;4.90;;;;;;;13.39;80.32;101184.66;5044808;28;20857;-59
2024/03/20 01:44:35;;;;;;;12.52;5.93;;;;;;;13.00;81.67;101190.16;5052694;28;20052;-57
2024/03/20 01:47:02;;;;;;;14.52;6.25;;;;;;;13.19;82.02;101183.31;5030909;28;20053;-60
2024/03/20 01:49:30;;;;;;;12.93;5.55;;;;;;;13.08;81.63;101183.88;5048511;28;20041;-61
2024/03/20 01:51:57;;;;;;;13.98;6.40;;;;;;;12.90;83.04;101185.72;5034794;28;20052;-59
2024/03/20 01:54:24;;;;;;;14.52;6.40;;;;;;;13.06;82.91;101186.16;5067451;28;20052;-60
2024/03/20 01:56:53;;;;;;;14.07;5.85;;;;;;;13.26;81.65;101189.19;5046981;28;20064;-59
2024/03/20 01:59:19;;;;;;;13.90;6.18;;;;;;;12.89;82.64;101183.28;5047584;28;20056;-59
2024/03/20 02:01:45;;;;;;;20.08;6.32;;;;;;;12.75;83.55;101190.84;5047278;28;20053;-60
2024/03/20 02:04:11;;;;;;;13.82;5.78;;;;;;;12.67;84.52;101191.59;5055179;28;20048;-59
2024/03/20 02:06:38;;;;;;;16.02;5.78;;;;;;;12.79;83.99;101197.38;5067853;28;20071;-60
2024/03/20 02:09:05;;;;;;;12.65;5.63;;;;;;;12.69;84.65;101192.94;5066192;28;20036;-61
2024/03/20 02:11:31;;;;;;;13.02;6.05;;;;;;;12.75;84.38;101199.94;5047976;28;20059;-62
2024/03/20 02:13:57;;;;;;;16.45;6.53;;;;;;;12.80;84.35;101186.00;5047106;28;20216;-61
2024/03/20 02:16:25;;;;;;;14.35;6.93;;;;;;;12.92;84.05;101188.19;5045924;28;20052;-61
2024/03/20 02:18:52;;;;;;;12.15;6.10;;;;;;;12.82;83.92;101188.44;5054982;28;20056;-57
2024/03/20 02:21:20;;;;;;;14.95;5.88;;;;;;;12.47;85.51;101181.88;5047208;28;20053;-61
2024/03/20 02:23:48;;;;;;;15.18;5.68;;;;;;;12.70;85.70;101194.56;5047074;28;20051;-60
2024/03/20 02:26:15;;;;;;;13.00;5.80;;;;;;;12.59;85.61;101186.84;5051132;28;20091;-61
2024/03/20 02:28:43;;;;;;;11.68;5.82;;;;;;;12.67;85.43;101192.44;5046894;28;20053;-61
2024/03/20 02:31:11;;;;;;;15.13;5.90;;;;;;;12.79;84.52;101200.13;5051450;28;20052;-58
2024/03/20 02:33:38;;;;;;;15.73;5.93;;;;;;;12.73;84.57;101196.69;5040560;28;20049;-58
2024/03/20 02:36:05;;;;;;;13.38;5.60;;;;;;;12.70;85.00;101196.50;5040887;28;20045;-61
2024/03/20 02:38:38;;;;;;;15.38;6.53;;;;;;;12.83;84.31;101196.41;5049050;28;20064;-61
2024/03/20 02:41:06;;;;;;;11.43;5.97;;;;;;;12.81;84.53;101197.88;5046210;28;20488;-61
2024/03/20 02:43:32;;;;;;;14.75;6.40;;;;;;;12.87;84.12;101193.81;5052101;28;20060;-61
2024/03/20 02:45:59;;;;;;;16.50;6.38;;;;;;;12.52;85.12;101194.78;5059436;28;20063;-61
2024/03/20 02:48:25;;;;;;;16.10;6.70;;;;;;;12.48;86.16;101196.53;5047542;28;20709;-60
2024/03/20 02:50:52;;;;;;;13.80;6.78;;;;;;;12.62;85.78;101187.03;5046624;28;20068;-60
2024/03/20 02:53:18;;;;;;;21.40;7.40;;;;;;;12.60;85.78;101185.72;5037146;28;20064;-59
2024/03/20 02:55:46;;;;;;;13.90;7.10;;;;;;;12.67;85.26;101184.16;5050433;28;20056;-61
2024/03/20 02:58:12;;;;;;;15.57;7.57;;;;;;;12.78;84.71;101181.94;5064884;28;20052;-61
2024/03/20 03:00:38;;;;;;;15.38;7.13;;;;;;;12.82;84.57;101183.72;5055651;28;20045;-57
2024/03/20 03:03:05;;;;;;;15.98;6.40;;;;;;;12.59;85.28;101178.56;5066220;28;20535;-59
2024/03/20 03:05:31;;;;;;;16.42;6.43;;;;;;;12.53;85.30;101175.09;5065850;28;20756;-60
2024/03/20 03:07:58;;;;;;;15.60;6.38;;;;;;;12.45;85.98;101175.84;5057437;28;20528;-62
2024/03/20 03:10:24;;;;;;;14.93;6.45;;;;;;;12.74;85.16;101167.09;5039731;28;20051;-61
2024/03/20 03:12:51;;;;;;;14.10;6.32;;;;;;;12.76;84.40;101151.81;5066369;28;20063;-61
2024/03/20 03:15:19;;;;;;;17.50;6.10;;;;;;;12.77;84.57;101153.47;5065079;28;20053;-57
2024/03/20 03:17:46;;;;;;;12.63;6.18;;;;;;;12.64;84.79;101156.31;5065737;28;20070;-58
2024/03/20 03:20:15;;;;;;;17.27;6.60;;;;;;;12.62;85.37;101162.16;5066158;28;20063;-56
2024/03/20 03:22:42;;;;;;;13.90;6.20;;;;;;;12.72;84.80;101155.53;5066215;28;20048;-56
2024/03/20 03:25:10;;;;;;;12.98;6.30;;;;;;;12.59;85.46;101165.53;5062217;28;20071;-61
2024/03/20 03:27:37;;;;;;;16.15;7.78;;;;;;;12.41;85.92;101159.09;5045769;28;20045;-60
2024/03/20 03:30:06;;;;;;;15.52;8.07;;;;;;;12.18;86.97;101168.53;5050003;28;20048;-60
2024/03/20 03:32:32;;;;;;;19.38;7.22;;;;;;;12.09;87.57;101164.03;5051139;28;20056;-62
2024/03/20 03:34:58;;;;;;;18.92;7.97;;;;;;;12.07;88.62;101158.00;5064549;28;20063;-63
2024/03/20 03:37:24;;;;;;;16.58;7.05;;;;;;;12.39;87.41;101163.31;5054998;28;20052;-60
2024/03/20 03:39:51;;;;;;;14.45;7.38;;;;;;;12.36;86.73;101150.94;5028571;28;20056;-58
2024/03/20 03:42:19;;;;;;;16.13;7.32;;;;;;;12.43;86.63;101153.25;5028248;28;20065;-59
2024/03/20 03:44:45;;;;;;;16.17;7.35;;;;;;;12.44;86.47;101146.59;5063186;28;20064;-60
2024/03/20 03:47:11;;;;;;;15.43;7.53;;;;;;;12.54;85.97;101143.56;5064848;28;20074;-60
2024/03/20 03:49:38;;;;;;;12.90;7.30;;;;;;;12.44;86.38;101144.66;5038920;28;20128;-59
2024/03/20 03:52:04;;;;;;;17.85;7.57;;;;;;;12.48;86.35;101136.56;5051814;28;20053;-58
2024/03/20 03:54:31;;;;;;;18.20;8.25;;;;;;;12.54;86.09;101140.81;5065893;28;20510;-59
2024/03/20 03:56:57;;;;;;;18.95;7.72;;;;;;;12.38;86.86;101136.81;5052758;28;20800;-62
2024/03/20 03:59:24;;;;;;;14.73;7.68;;;;;;;12.40;86.74;101140.88;5046581;28;20052;-59
2024/03/20 04:01:50;;;;;;;16.00;7.85;;;;;;;12.42;87.05;101135.03;5044163;28;20059;-59
2024/03/20 04:04:16;;;;;;;17.00;8.25;;;;;;;12.16;88.25;101134.06;5055586;28;20044;-59
2024/03/20 04:06:43;;;;;;;19.17;7.30;;;;;;;12.21;88.69;101136.69;5051696;28;20060;-59
2024/03/20 04:09:10;;;;;;;15.75;7.82;;;;;;;12.24;88.70;101139.63;5028563;28;20061;-58
2024/03/20 04:11:37;;;;;;;16.85;7.85;;;;;;;12.38;88.32;101145.91;5045796;28;20056;-58
2024/03/20 04:14:07;;;;;;;18.17;7.90;;;;;;;12.35;87.42;101140.19;5045216;28;20061;-58
2024/03/20 04:16:34;;;;;;;16.30;7.63;;;;;;;12.10;89.11;101146.38;5045063;28;20057;-58
2024/03/20 04:19:01;;;;;;;13.27;7.72;;;;;;;12.14;89.89;101147.34;5036637;28;20063;-58
2024/03/20 04:21:27;;;;;;;15.68;8.15;;;;;;;12.05;89.88;101152.81;5065295;28;20036;-61
2024/03/20 04:23:53;;;;;;;19.58;8.18;;;;;;;12.24;89.68;101152.63;5065223;28;20056;-59
2024/03/20 04:26:20;;;;;;;16.33;7.53;;;;;;;12.39;88.54;101147.56;5065470;28;20064;-61
2024/03/20 04:28:46;;;;;;;17.88;7.70;;;;;;;12.44;87.65;101146.59;5033576;28;20060;-59
2024/03/20 04:31:14;;;;;;;19.02;8.27;;;;;;;12.50;87.86;101152.81;5043673;28;20040;-59
2024/03/20 04:33:41;;;;;;;17.65;8.15;;;;;;;12.65;87.16;101147.72;5081492;28;20752;-61
2024/03/20 04:36:08;;;;;;;14.93;8.00;;;;;;;12.55;86.42;101144.41;5065386;28;20044;-62
2024/03/20 04:38:36;;;;;;;17.85;8.05;;;;;;;12.61;86.68;101152.22;5064671;28;20408;-60
2024/03/20 04:41:08;;;;;;;17.45;8.20;;;;;;;12.75;86.37;101141.06;5058134;28;20068;-61
2024/03/20 04:43:34;;;;;;;20.13;8.55;;;;;;;12.55;86.32;101147.97;5056518;28;20041;-61
2024/03/20 04:46:01;;;;;;;17.95;8.15;;;;;;;12.10;88.23;101149.13;5035757;28;20067;-61
2024/03/20 04:48:27;;;;;;;14.20;7.68;;;;;;;12.25;89.58;101151.50;5054228;28;20063;-62
2024/03/20 04:50:54;;;;;;;18.15;8.65;;;;;;;12.38;88.13;101151.44;5066483;28;20148;-60
2024/03/20 04:53:20;;;;;;;14.60;8.25;;;;;;;12.48;87.77;101162.22;5055117;28;20065;-60
2024/03/20 04:55:47;;;;;;;16.65;8.32;;;;;;;12.55;87.37;101144.41;5048673;28;20063;-61
2024/03/20 04:58:13;;;;;;;21.75;8.20;;;;;;;12.48;87.19;101162.22;5048814;28;20051;-61
2024/03/20 05:00:40;;;;;;;21.25;8.23;;;;;;;12.21;88.23;101156.03;5015847;28;20506;-62
2024/03/20 05:03:06;;;;;;;19.15;9.45;;;;;;;12.40;88.45;101165.75;5050897;28;20060;-62
2024/03/20 05:05:32;;;;;;;17.38;8.23;;;;;;;12.37;88.21;101155.34;5048737;28;20064;-61
2024/03/20 05:07:58;;;;;;;15.43;8.52;;;;;;;12.46;87.53;101164.47;5032056;28;20067;-62
2024/03/20 05:10:25;;;;;;;16.88;8.40;;;;;;;12.36;87.88;101155.66;5049092;28;20057;-60
2024/03/20 05:12:51;;;;;;;19.10;8.48;;;;;;;12.58;87.40;101149.28;5048476;28;20049;-61
2024/03/20 05:15:17;;;;;;;17.13;8.25;;;;;;;12.59;86.79;101151.72;5048639;28;20052;-61
2024/03/20 05:17:44;;;;;;;16.08;8.57;;;;;;;12.70;86.34;101152.28;5048166;28;20055;-62
2024/03/20 05:20:10;;;;;;;13.02;7.43;;;;;;;12.60;86.46;101149.78;5048127;28;20056;-62
2024/03/20 05:22:36;;;;;;;18.27;8.50;;;;;;;12.56;86.55;101149.59;5050714;28;20053;-61
2024/03/20 05:25:03;;;;;;;14.32;7.97;;;;;;;12.51;86.82;101152.50;5054633;28;20737;-61
2024/03/20 05:27:30;;;;;;;17.48;8.38;;;;;;;12.65;86.49;101144.13;5051496;28;20048;-61
2024/03/20 05:29:56;;;;;;;21.30;8.35;;;;;;;12.74;85.97;101153.28;5068121;28;20059;-61
2024/03/20 05:32:22;;;;;;;17.48;7.85;;;;;;;12.75;85.91;101152.97;5049334;28;20059;-61
2024/03/20 05:34:49;;;;;;;19.20;7.95;;;;;;;12.66;85.94;101145.78;5057596;28;20056;-61
2024/03/20 05:37:15;;;;;;;17.77;8.15;;;;;;;12.64;85.99;101148.81;5067770;28;20060;-62
2024/03/20 05:39:42;;;;;;;16.90;8.50;;;;;;;12.59;86.41;101151.72;5050024;28;20056;-63
2024/03/20 05:42:08;;;;;;;15.45;8.13;;;;;;;12.71;86.14;101153.94;5067703;28;20041;-61
2024/03/20 05:44:34;;;;;;;14.75;8.35;;;;;;;12.63;86.18;101155.50;5046214;28;20060;-57
2024/03/20 05:47:01;;;;;;;18.33;8.55;;;;;;;12.61;86.36;101155.00;5061099;28;20053;-60
2024/03/20 05:49:27;;;;;;;21.50;8.88;;;;;;;12.52;86.95;101154.13;5067825;28;20044;-58
2024/03/20 05:51:53;;;;;;;23.67;9.02;;;;;;;12.23;88.37;101157.34;5050887;28;20056;-57
2024/03/20 05:54:19;;;;;;;20.85;9.07;;;;;;;12.14;89.43;101155.63;5065722;28;20068;-59
2024/03/20 05:56:46;;;;;;;18.45;8.70;;;;;;;12.03;90.54;101152.31;5067597;28;20049;-59
2024/03/20 05:59:12;;;;;;;24.70;8.88;;;;;;;12.28;89.50;101157.22;5051279;28;20071;-61
2024/03/20 06:01:38;;;;;;;16.95;9.45;;;;;;;12.10;89.89;101158.22;5067377;28;20070;-60
2024/03/20 06:04:05;;;;;;;21.58;9.18;;;;;;;12.32;89.34;101162.94;5068088;28;20412;-60
2024/03/20 06:06:31;;;;;;;19.67;9.07;;;;;;;12.15;89.69;101158.09;5048487;28;20048;-58
2024/03/20 06:08:58;;;;;;;24.52;9.75;;;;;;;12.45;88.70;101160.09;5031100;28;20489;-58
2024/03/20 06:11:42;;;;;;;18.73;9.65;;;;;;;12.51;87.97;101165.50;5064735;28;20752;-60
2024/03/20 06:14:10;;;;;;;22.92;9.40;;;;;;;12.51;87.93;101169.06;5041749;28;20539;-60
2024/03/20 06:16:37;;;;;;;16.67;9.68;;;;;;;12.65;87.30;101160.69;5050550;28;20044;-60
2024/03/20 06:19:04;;;;;;;20.25;10.23;;;;;;;12.54;87.22;101157.38;5058218;28;20047;-59
2024/03/20 06:21:33;;;;;;;20.92;9.35;;;;;;;12.71;87.58;101159.44;5030632;28;20573;-57
2024/03/20 06:24:00;;;;;;;27.10;9.98;;;;;;;12.69;86.92;101148.72;5053749;28;20147;-60
2024/03/20 06:26:26;;;;;;;23.33;9.35;;;;;;;12.73;86.99;101159.94;5049991;28;20742;-58
2024/03/20 06:28:53;;;;;;;23.00;10.90;;;;;;;12.75;87.01;101164.00;5042771;28;20052;-60
2024/03/20 06:31:19;;;;;;;26.50;10.40;;;;;;;12.68;87.04;101162.81;5060260;28;20052;-59
2024/03/20 06:33:48;;;;;;;23.80;9.80;;;;;;;12.57;87.79;101167.00;5046690;28;20448;-60
2024/03/20 06:36:15;;;;;;;21.63;10.55;;;;;;;12.49;88.22;101165.81;4997463;28;20518;-62
2024/03/20 06:38:42;;;;;;;25.60;10.07;;;;;;;12.40;88.88;101176.81;5013937;28;20044;-60
2024/03/20 06:41:08;;;;;;;26.58;10.95;;;;;;;12.24;89.50;101177.47;5049624;28;20056;-59
2024/03/20 06:43:35;;;;;;;22.33;10.88;;;;;;;12.35;89.84;101182.47;5056844;28;20044;-59
2024/03/20 06:46:01;;;;;;;27.40;11.25;;;;;;;12.25;89.99;101173.59;5046246;28;20044;-60
2024/03/20 06:48:28;;;;;;;18.63;10.25;;;;;;;12.54;89.24;101179.50;5045592;28;20059;-58
2024/03/20 06:50:58;;;;;;;22.67;10.30;;;;;;;12.53;88.82;101177.88;5051237;28;20052;-59
2024/03/20 06:53:28;;;;;;;18.85;10.32;;;;;;;12.58;88.83;101186.03;5073325;28;20052;-55
2024/03/20 06:55:55;;;;;;;28.73;11.00;;;;;;;12.70;87.76;101194.56;5057524;28;20664;-62
2024/03/20 06:58:22;;;;;;;18.50;10.48;;;;;;;12.61;88.23;101199.22;5054045;28;20051;-58
2024/03/20 07:00:49;;;;;;;23.10;9.30;;;;;;;12.77;88.24;101197.69;5046136;28;20051;-58
2024/03/20 07:03:16;;;;;;;22.40;10.63;;;;;;;12.77;87.85;101194.09;5037532;28;20049;-59
2024/03/20 07:05:42;;;;;;;24.30;10.18;;;;;;;12.96;87.43;101190.00;5057987;28;20056;-58
2024/03/20 07:08:09;;;;;;;23.70;10.70;;;;;;;12.87;86.76;101197.41;5055969;28;20562;-57
2024/03/20 07:10:39;;;;;;;19.20;9.98;;;;;;;12.91;87.13;101190.13;5055941;28;20048;-55
2024/03/20 07:13:06;;;;;;;;;;;;;;;12.79;86.74;101189.09;5044781;28;20496;-54
2024/03/20 07:15:32;;;;;;;27.58;11.52;;;;;;;12.85;87.52;101185.84;5046678;28;19925;-55
2024/03/20 07:17:59;;;;;;;38.55;20.05;;;;;;;12.94;86.83;101183.13;5064921;28;20052;-56
2024/03/20 07:20:26;;;;;;;21.58;12.20;;;;;;;13.02;86.27;101194.25;5040698;28;20052;-56
2024/03/20 07:22:52;;;;;;;23.25;11.68;;;;;;;13.03;86.29;101192.31;5058847;28;20411;-55
2024/03/20 07:25:19;;;;;;;18.33;11.00;;;;;;;13.08;86.18;101192.19;5060564;28;20049;-56
2024/03/20 07:27:46;;;;;;;27.83;11.57;;;;;;;13.15;86.26;101196.13;5061032;28;20060;-58
2024/03/20 07:30:12;;;;;;;22.42;11.63;;;;;;;13.34;84.73;101188.38;5056880;28;20075;-58
2024/03/20 07:32:40;;;;;;;28.23;12.20;;;;;;;13.52;84.82;101192.84;5046686;28;20805;-56
2024/03/20 07:35:06;;;;;;;27.67;13.00;;;;;;;13.55;84.33;101186.66;5066203;28;20051;-58
2024/03/20 07:37:33;;;;;;;22.90;12.60;;;;;;;13.58;83.79;101180.47;5060201;28;20052;-57
2024/03/20 07:39:59;;;;;;;25.38;12.95;;;;;;;13.87;82.99;101188.19;5047177;28;20056;-58
2024/03/20 07:42:27;;;;;;;22.45;11.27;;;;;;;14.05;83.73;101183.50;5059523;28;20723;-58
2024/03/20 07:44:56;;;;;;;24.88;12.95;;;;;;;14.17;82.16;101183.66;5074131;28;20049;-56
2024/03/20 07:47:22;;;;;;;23.40;12.63;;;;;;;14.21;81.16;101188.22;5060192;28;20092;-57
2024/03/20 07:49:52;;;;;;;18.70;12.98;;;;;;;14.41;79.92;101184.00;5051444;28;20060;-57
2024/03/20 07:52:18;;;;;;;24.65;13.98;;;;;;;14.28;80.04;101191.34;5034225;28;20048;-57
2024/03/20 07:54:45;;;;;;;22.58;13.40;;;;;;;14.20;80.62;101191.31;5054021;28;20067;-55
2024/03/20 07:57:11;;;;;;;24.42;13.57;;;;;;;14.24;80.37;101195.84;5054369;28;20395;-55
2024/03/20 07:59:38;;;;;;;23.35;13.60;;;;;;;14.58;79.27;101192.28;5057619;28;20048;-55
2024/03/20 08:02:06;;;;;;;22.25;12.55;;;;;;;14.44;79.49;101188.88;5048184;28;20072;-56
2024/03/20 08:04:33;;;;;;;27.70;13.77;;;;;;;14.64;78.93;101197.31;5055190;28;20079;-57
2024/03/20 08:07:00;;;;;;;20.88;12.70;;;;;;;14.55;78.82;101190.19;5062745;28;20049;-56
2024/03/20 08:09:26;;;;;;;22.23;12.75;;;;;;;14.62;78.50;101199.63;5047499;28;20580;-57
2024/03/20 08:11:56;;;;;;;28.87;13.77;;;;;;;14.72;77.54;101208.72;5054781;28;20041;-58
2024/03/20 08:14:22;;;;;;;21.00;13.38;;;;;;;14.68;77.31;101200.25;5051541;28;20057;-58
2024/03/20 08:16:51;;;;;;;21.98;12.82;;;;;;;14.71;77.25;101198.78;5063556;28;20052;-56
2024/03/20 08:19:20;;;;;;;20.58;12.90;;;;;;;14.85;77.25;101196.66;5054726;28;20056;-57
2024/03/20 08:21:47;;;;;;;20.73;12.70;;;;;;;14.87;77.48;101202.69;5035631;28;20056;-57
2024/03/20 08:24:14;;;;;;;21.25;12.15;;;;;;;14.80;76.02;101207.91;5067844;28;20052;-56
2024/03/20 08:26:40;;;;;;;19.20;12.10;;;;;;;14.92;76.00;101206.09;5050882;28;20087;-56
2024/03/20 08:29:08;;;;;;;17.80;11.18;;;;;;;15.00;75.81;101204.44;5071586;28;20752;-56
2024/03/20 08:31:34;;;;;;;19.23;11.65;;;;;;;15.05;75.36;101201.47;5054869;28;20044;-58
2024/03/20 08:34:00;;;;;;;21.73;12.23;;;;;;;15.06;75.19;101203.13;5038022;28;20957;-57
2024/03/20 08:36:29;;;;;;;20.65;11.93;;;;;;;15.28;74.72;101200.06;5058602;28;20051;-59
2024/03/20 08:38:55;;;;;;;25.75;11.98;;;;;;;15.07;74.89;101200.00;5058919;28;20059;-57
2024/03/20 08:41:21;;;;;;;19.23;11.40;;;;;;;15.16;74.47;101203.56;5070981;28;20044;-57
2024/03/20 08:43:48;;;;;;;20.25;12.05;;;;;;;15.18;74.88;101201.28;5045470;28;20115;-58
2024/03/20 08:46:15;;;;;;;25.80;12.63;;;;;;;15.29;74.85;101196.97;5034185;28;20053;-56
2024/03/20 08:48:41;;;;;;;26.17;12.70;;;;;;;15.46;73.61;101196.13;5067050;28;20060;-57
2024/03/20 08:51:08;;;;;;;20.70;11.68;;;;;;;15.40;73.11;101191.88;5042279;28;20033;-58
2024/03/20 08:53:34;;;;;;;22.88;11.75;;;;;;;15.53;72.79;101188.88;5044509;28;20693;-58
2024/03/20 08:56:01;;;;;;;24.52;14.23;;;;;;;15.79;72.12;101195.09;5053489;28;20062;-56
2024/03/20 08:58:28;;;;;;;27.52;19.67;;;;;;;15.62;72.05;101191.63;5048037;28;20056;-60
2024/03/20 09:00:54;;;;;;;20.17;13.57;;;;;;;15.70;72.02;101187.97;5050734;28;20064;-59
2024/03/20 09:03:21;;;;;;;20.67;11.13;;;;;;;15.72;72.09;101191.22;5048188;28;20050;-57
2024/03/20 09:05:47;;;;;;;20.85;11.55;;;;;;;15.86;72.12;101190.97;5047833;28;20056;-60
2024/03/20 09:08:17;;;;;;;19.00;11.30;;;;;;;15.86;71.32;101186.25;5035168;28;20052;-58
2024/03/20 09:10:43;;;;;;;16.95;11.80;;;;;;;15.98;70.58;101191.06;5049518;28;20049;-57
2024/03/20 09:13:12;;;;;;;20.90;11.55;;;;;;;15.83;70.49;101191.66;5059449;28;20075;-58
2024/03/20 09:15:39;;;;;;;19.55;11.20;;;;;;;15.94;70.09;101184.53;5062492;28;20055;-58
2024/03/20 09:18:06;;;;;;;20.10;11.45;;;;;;;15.69;70.77;101187.16;5053204;28;20048;-58
2024/03/20 09:20:32;;;;;;;25.40;11.43;;;;;;;15.65;70.46;101196.50;5051401;28;20063;-56
2024/03/20 09:23:01;;;;;;;25.73;11.27;;;;;;;15.82;69.78;101196.38;5052894;28;20519;-57
2024/03/20 09:25:27;;;;;;;23.98;11.65;;;;;;;16.00;69.52;101197.09;5046417;28;20057;-61
2024/03/20 09:27:54;;;;;;;23.38;10.50;;;;;;;15.89;69.17;101201.41;5067925;28;20483;-58
2024/03/20 09:30:21;;;;;;;26.10;10.35;;;;;;;16.03;69.18;101200.00;5061688;28;20052;-59
2024/03/20 09:32:47;;;;;;;16.13;10.07;;;;;;;16.45;68.57;101198.84;5029746;28;20058;-58
2024/03/20 09:35:14;;;;;;;21.40;10.43;;;;;;;16.84;66.74;101200.28;5067884;28;20056;-61
2024/03/20 09:37:40;;;;;;;16.48;10.95;;;;;;;16.62;66.15;101195.09;5069188;28;20471;-57
2024/03/20 09:40:10;;;;;;;28.08;18.95;;;;;;;16.48;66.77;101191.81;5049984;28;20055;-58
2024/03/20 09:42:37;;;;;;;;;;;;;;;16.70;66.44;101191.44;5067777;28;20047;-58
2024/03/20 09:45:05;;;;;;;21.08;10.63;;;;;;;16.93;65.66;101195.44;5042835;28;19925;-55
2024/03/20 09:47:35;;;;;;;20.73;10.00;;;;;;;16.58;65.98;101194.19;5063028;28;20045;-60
2024/03/20 09:50:02;;;;;;;17.75;10.07;;;;;;;16.80;65.94;101188.22;5047824;28;20815;-58
2024/03/20 09:52:29;;;;;;;18.00;9.75;;;;;;;17.10;65.09;101195.25;5047491;28;20057;-60
2024/03/20 09:54:56;;;;;;;14.95;9.40;;;;;;;17.13;63.65;101194.56;5061443;28;20401;-57
2024/03/20 09:57:26;;;;;;;20.90;10.27;;;;;;;17.02;63.62;101190.56;5051462;28;20052;-59
2024/03/20 09:59:52;;;;;;;13.30;9.05;;;;;;;16.77;64.32;101183.34;5058956;28;20053;-56
2024/03/20 10:02:21;;;;;;;17.17;8.95;;;;;;;16.83;64.38;101182.78;5064463;28;20052;-56
2024/03/20 10:04:47;;;;;;;12.43;8.60;;;;;;;17.19;64.23;101182.00;5067014;28;20795;-55
2024/03/20 10:07:14;;;;;;;13.95;9.00;;;;;;;16.99;64.36;101177.38;5065336;28;20484;-57
2024/03/20 10:09:47;;;;;;;14.20;8.00;;;;;;;16.99;63.11;101182.09;5057376;28;20049;-56
2024/03/20 10:12:15;;;;;;;18.75;8.60;;;;;;;17.22;63.20;101173.00;5036362;28;20052;-56
2024/03/20 10:14:42;;;;;;;19.38;8.10;;;;;;;17.52;62.33;101174.41;5055745;28;20049;-58
2024/03/20 10:17:14;;;;;;;16.58;8.55;;;;;;;17.78;61.33;101165.69;5047068;28;20067;-61
2024/03/20 10:19:41;;;;;;;21.48;8.57;;;;;;;17.90;60.59;101174.81;5053517;28;20052;-59
2024/03/20 10:22:08;;;;;;;13.77;7.38;;;;;;;18.12;60.26;101164.31;5063933;28;20539;-58
2024/03/20 10:24:35;;;;;;;15.23;6.97;;;;;;;17.96;59.17;101162.28;5047400;28;20053;-60
2024/03/20 10:27:02;;;;;;;13.48;6.60;;;;;;;18.06;58.66;101160.16;5047392;28;20045;-59
2024/03/20 10:29:30;;;;;;;14.27;6.85;;;;;;;18.33;58.08;101164.94;5046805;28;20087;-58
2024/03/20 10:32:01;;;;;;;13.15;6.32;;;;;;;18.64;57.36;101156.69;5052360;28;20037;-57
2024/03/20 10:34:28;;;;;;;18.20;6.43;;;;;;;18.68;57.19;101158.44;5026964;28;20675;-58
2024/03/20 10:36:55;;;;;;;13.23;6.05;;;;;;;18.73;55.90;101151.75;5056126;28;20554;-57
2024/03/20 10:39:27;;;;;;;13.43;5.93;;;;;;;18.70;55.67;101155.28;5064951;28;20049;-56
2024/03/20 10:41:54;;;;;;;14.93;5.43;;;;;;;18.60;56.50;101153.00;5063118;28;20124;-55
2024/03/20 10:44:22;;;;;;;11.38;5.85;;;;;;;18.65;55.73;101138.81;5059853;28;20420;-59
2024/03/20 10:46:54;;;;;;;10.88;5.35;;;;;;;18.83;55.38;101140.06;5043909;28;20053;-57
2024/03/20 10:49:24;;;;;;;15.43;5.70;;;;;;;18.84;54.61;101142.53;5047905;28;20523;-59
2024/03/20 10:51:52;;;;;;;11.23;5.63;;;;;;;19.02;54.65;101132.59;5052506;28;20063;-57
2024/03/20 10:54:19;;;;;;;15.23;5.50;;;;;;;19.21;53.61;101131.91;5061423;28;20686;-57
2024/03/20 10:56:50;;;;;;;14.23;4.90;;;;;;;19.08;53.80;101133.97;5052209;28;20060;-56
2024/03/20 10:59:21;;;;;;;12.40;5.00;;;;;;;18.74;53.86;101137.44;5055092;28;20063;-58
2024/03/20 11:02:12;;;;;;;15.00;4.57;;;;;;;18.98;53.13;101142.09;5065299;28;20055;-57
2024/03/20 11:04:43;;;;;;;7.40;3.70;;;;;;;18.87;52.59;101141.81;5052824;28;20056;-57
2024/03/20 11:07:22;;;;;;;10.00;3.50;;;;;;;18.91;53.16;101141.91;5044064;28;20059;-60
2024/03/20 11:09:48;;;;;;;9.18;3.83;;;;;;;18.94;52.31;101139.19;5059895;28;20045;-60
2024/03/20 11:12:33;;;;;;;9.07;3.25;;;;;;;19.22;52.30;101143.88;5051001;28;20037;-62
2024/03/20 11:15:06;;;;;;;12.00;4.13;;;;;;;19.11;51.24;101142.81;5055018;28;20059;-56